sensor_id;sensor_type;location;lat;lon;timestamp;P1;durP1;ratioP1;P2;durP2;ratioP2
19691;SDS011;42748;50.016;19.890;2023-05-10T00:00:11;26.00;;;13.48;;
19691;SDS011;42748;50.016;19.890;2023-05-10T00:02:39;28.75;;;13.88;;
19691;SDS011;42748;50.016;19.890;2023-05-10T00:05:07;23.65;;;12.75;;
19691;SDS011;42748;50.016;19.890;2023-05-10T00:07:35;25.10;;;12.88;;
19691;SDS011;42748;50.016;19.890;2023-05-10T00:10:02;23.55;;;12.85;;
19691;SDS011;42748;50.016;19.890;2023-05-10T00:12:30;21.25;;;12.18;;
19691;SDS011;42748;50.016;19.890;2023-05-10T00:14:57;21.15;;;11.30;;
19691;SDS011;42748;50.016;19.890;2023-05-10T00:17:24;21.05;;;11.73;;
19691;SDS011;42748;50.016;19.890;2023-05-10T00:19:52;22.25;;;11.20;;
19691;SDS011;42748;50.016;19.890;2023-05-10T00:22:19;20.92;;;11.13;;
19691;SDS011;42748;50.016;19.890;2023-05-10T00:24:47;20.23;;;10.80;;
19691;SDS011;42748;50.016;19.890;2023-05-10T00:27:14;19.33;;;10.90;;
19691;SDS011;42748;50.016;19.890;2023-05-10T00:29:42;22.17;;;10.80;;
19691;SDS011;42748;50.016;19.890;2023-05-10T00:32:10;18.63;;;10.60;;
19691;SDS011;42748;50.016;19.890;2023-05-10T00:34:38;23.35;;;11.30;;
19691;SDS011;42748;50.016;19.890;2023-05-10T00:37:05;19.60;;;11.55;;
19691;SDS011;42748;50.016;19.890;2023-05-10T00:39:33;21.17;;;11.07;;
19691;SDS011;42748;50.016;19.890;2023-05-10T00:42:00;22.20;;;11.45;;
19691;SDS011;42748;50.016;19.890;2023-05-10T00:44:28;21.25;;;12.05;;
19691;SDS011;42748;50.016;19.890;2023-05-10T00:46:55;19.45;;;11.30;;
19691;SDS011;42748;50.016;19.890;2023-05-10T00:49:24;19.45;;;11.18;;
19691;SDS011;42748;50.016;19.890;2023-05-10T00:51:51;26.63;;;11.48;;
19691;SDS011;42748;50.016;19.890;2023-05-10T00:54:19;22.45;;;11.52;;
19691;SDS011;42748;50.016;19.890;2023-05-10T00:56:47;18.92;;;11.18;;
19691;SDS011;42748;50.016;19.890;2023-05-10T00:59:16;18.83;;;11.05;;
19691;SDS011;42748;50.016;19.890;2023-05-10T01:01:44;20.42;;;11.23;;
19691;SDS011;42748;50.016;19.890;2023-05-10T01:04:12;21.92;;;10.88;;
19691;SDS011;42748;50.016;19.890;2023-05-10T01:06:41;19.58;;;11.00;;
19691;SDS011;42748;50.016;19.890;2023-05-10T01:09:09;18.25;;;11.30;;
19691;SDS011;42748;50.016;19.890;2023-05-10T01:11:38;21.83;;;11.20;;
19691;SDS011;42748;50.016;19.890;2023-05-10T01:14:05;24.90;;;11.85;;
19691;SDS011;42748;50.016;19.890;2023-05-10T01:16:34;21.75;;;12.48;;
19691;SDS011;42748;50.016;19.890;2023-05-10T01:19:08;21.50;;;11.73;;
19691;SDS011;42748;50.016;19.890;2023-05-10T01:21:42;25.95;;;12.27;;
19691;SDS011;42748;50.016;19.890;2023-05-10T01:27:02;24.13;;;12.50;;
19691;SDS011;42748;50.016;19.890;2023-05-10T01:34:35;22.77;;;12.73;;
19691;SDS011;42748;50.016;19.890;2023-05-10T01:37:11;24.00;;;13.20;;
19691;SDS011;42748;50.016;19.890;2023-05-10T01:39:47;24.63;;;12.43;;
19691;SDS011;42748;50.016;19.890;2023-05-10T01:42:21;28.63;;;12.77;;
19691;SDS011;42748;50.016;19.890;2023-05-10T01:49:55;27.57;;;14.20;;
19691;SDS011;42748;50.016;19.890;2023-05-10T01:52:25;27.87;;;14.00;;
19691;SDS011;42748;50.016;19.890;2023-05-10T01:54:55;27.60;;;13.13;;
19691;SDS011;42748;50.016;19.890;2023-05-10T01:57:24;26.10;;;13.53;;
19691;SDS011;42748;50.016;19.890;2023-05-10T01:59:52;27.20;;;13.60;;
19691;SDS011;42748;50.016;19.890;2023-05-10T02:02:21;25.37;;;13.40;;
19691;SDS011;42748;50.016;19.890;2023-05-10T02:04:49;24.23;;;13.63;;
19691;SDS011;42748;50.016;19.890;2023-05-10T02:07:17;23.40;;;13.63;;
19691;SDS011;42748;50.016;19.890;2023-05-10T02:09:45;27.50;;;13.53;;
19691;SDS011;42748;50.016;19.890;2023-05-10T02:12:14;25.77;;;13.80;;
19691;SDS011;42748;50.016;19.890;2023-05-10T02:14:42;29.30;;;13.17;;
19691;SDS011;42748;50.016;19.890;2023-05-10T02:17:10;26.43;;;12.87;;
19691;SDS011;42748;50.016;19.890;2023-05-10T02:19:39;25.60;;;12.83;;
19691;SDS011;42748;50.016;19.890;2023-05-10T02:22:08;27.20;;;12.70;;
19691;SDS011;42748;50.016;19.890;2023-05-10T02:24:36;20.93;;;11.97;;
19691;SDS011;42748;50.016;19.890;2023-05-10T02:27:04;24.20;;;12.37;;
19691;SDS011;42748;50.016;19.890;2023-05-10T02:29:31;28.40;;;12.20;;
19691;SDS011;42748;50.016;19.890;2023-05-10T02:31:59;26.37;;;12.03;;
19691;SDS011;42748;50.016;19.890;2023-05-10T02:34:29;20.00;;;11.87;;
19691;SDS011;42748;50.016;19.890;2023-05-10T02:36:57;24.83;;;12.40;;
19691;SDS011;42748;50.016;19.890;2023-05-10T02:39:25;20.27;;;11.73;;
19691;SDS011;42748;50.016;19.890;2023-05-10T02:41:55;32.67;;;12.23;;
19691;SDS011;42748;50.016;19.890;2023-05-10T02:44:23;30.57;;;12.07;;
19691;SDS011;42748;50.016;19.890;2023-05-10T02:46:53;25.23;;;12.17;;
19691;SDS011;42748;50.016;19.890;2023-05-10T02:49:22;24.93;;;11.80;;
19691;SDS011;42748;50.016;19.890;2023-05-10T02:51:56;25.23;;;11.53;;
19691;SDS011;42748;50.016;19.890;2023-05-10T02:54:27;25.13;;;11.87;;
19691;SDS011;42748;50.016;19.890;2023-05-10T02:56:57;22.13;;;11.80;;
19691;SDS011;42748;50.016;19.890;2023-05-10T02:59:26;24.73;;;12.37;;
19691;SDS011;42748;50.016;19.890;2023-05-10T03:01:53;25.07;;;12.10;;
19691;SDS011;42748;50.016;19.890;2023-05-10T03:04:21;22.53;;;12.13;;
19691;SDS011;42748;50.016;19.890;2023-05-10T03:06:50;25.30;;;12.97;;
19691;SDS011;42748;50.016;19.890;2023-05-10T03:09:18;27.90;;;12.60;;
19691;SDS011;42748;50.016;19.890;2023-05-10T03:11:56;28.63;;;13.07;;
19691;SDS011;42748;50.016;19.890;2023-05-10T03:17:29;25.40;;;12.63;;
19691;SDS011;42748;50.016;19.890;2023-05-10T03:19:56;21.27;;;12.50;;
19691;SDS011;42748;50.016;19.890;2023-05-10T03:22:26;23.13;;;12.30;;
19691;SDS011;42748;50.016;19.890;2023-05-10T03:24:56;22.77;;;12.60;;
19691;SDS011;42748;50.016;19.890;2023-05-10T03:27:27;25.73;;;12.97;;
19691;SDS011;42748;50.016;19.890;2023-05-10T03:29:56;24.87;;;13.27;;
19691;SDS011;42748;50.016;19.890;2023-05-10T03:32:24;24.70;;;12.90;;
19691;SDS011;42748;50.016;19.890;2023-05-10T03:34:53;30.97;;;13.27;;
19691;SDS011;42748;50.016;19.890;2023-05-10T03:37:23;28.47;;;12.80;;
19691;SDS011;42748;50.016;19.890;2023-05-10T03:39:50;28.47;;;13.10;;
19691;SDS011;42748;50.016;19.890;2023-05-10T03:42:18;29.90;;;14.40;;
19691;SDS011;42748;50.016;19.890;2023-05-10T03:44:45;26.37;;;14.20;;
19691;SDS011;42748;50.016;19.890;2023-05-10T03:47:16;26.60;;;12.83;;
19691;SDS011;42748;50.016;19.890;2023-05-10T03:49:43;27.93;;;13.90;;
19691;SDS011;42748;50.016;19.890;2023-05-10T03:52:11;27.10;;;12.63;;
19691;SDS011;42748;50.016;19.890;2023-05-10T03:54:39;26.27;;;13.47;;
19691;SDS011;42748;50.016;19.890;2023-05-10T03:57:06;27.73;;;14.20;;
19691;SDS011;42748;50.016;19.890;2023-05-10T03:59:33;26.90;;;13.80;;
19691;SDS011;42748;50.016;19.890;2023-05-10T04:02:01;31.90;;;13.70;;
19691;SDS011;42748;50.016;19.890;2023-05-10T04:04:29;26.23;;;13.53;;
19691;SDS011;42748;50.016;19.890;2023-05-10T04:06:57;32.83;;;14.97;;
19691;SDS011;42748;50.016;19.890;2023-05-10T04:09:24;30.20;;;15.17;;
19691;SDS011;42748;50.016;19.890;2023-05-10T04:11:52;28.83;;;14.57;;
19691;SDS011;42748;50.016;19.890;2023-05-10T04:14:19;24.83;;;13.70;;
19691;SDS011;42748;50.016;19.890;2023-05-10T04:16:47;27.38;;;12.55;;
19691;SDS011;42748;50.016;19.890;2023-05-10T04:19:14;28.70;;;12.48;;
19691;SDS011;42748;50.016;19.890;2023-05-10T04:21:42;24.63;;;12.90;;
19691;SDS011;42748;50.016;19.890;2023-05-10T04:24:09;30.55;;;12.80;;
19691;SDS011;42748;50.016;19.890;2023-05-10T04:26:38;25.77;;;12.93;;
19691;SDS011;42748;50.016;19.890;2023-05-10T04:29:06;21.73;;;11.70;;
19691;SDS011;42748;50.016;19.890;2023-05-10T04:31:33;23.52;;;11.43;;
19691;SDS011;42748;50.016;19.890;2023-05-10T04:34:02;24.10;;;11.10;;
19691;SDS011;42748;50.016;19.890;2023-05-10T04:36:30;24.33;;;10.73;;
19691;SDS011;42748;50.016;19.890;2023-05-10T04:38:58;22.95;;;10.63;;
19691;SDS011;42748;50.016;19.890;2023-05-10T04:41:26;21.33;;;10.45;;
19691;SDS011;42748;50.016;19.890;2023-05-10T04:43:53;19.20;;;10.20;;
19691;SDS011;42748;50.016;19.890;2023-05-10T04:46:21;24.40;;;9.38;;
19691;SDS011;42748;50.016;19.890;2023-05-10T04:48:48;17.58;;;9.40;;
19691;SDS011;42748;50.016;19.890;2023-05-10T04:51:16;15.52;;;8.88;;
19691;SDS011;42748;50.016;19.890;2023-05-10T04:53:43;13.50;;;8.13;;
19691;SDS011;42748;50.016;19.890;2023-05-10T04:56:27;18.58;;;8.60;;
19691;SDS011;42748;50.016;19.890;2023-05-10T04:58:54;17.20;;;7.95;;
19691;SDS011;42748;50.016;19.890;2023-05-10T05:01:23;17.17;;;7.72;;
19691;SDS011;42748;50.016;19.890;2023-05-10T05:03:50;18.73;;;8.27;;
19691;SDS011;42748;50.016;19.890;2023-05-10T05:06:19;17.20;;;8.30;;
19691;SDS011;42748;50.016;19.890;2023-05-10T05:08:51;18.40;;;8.07;;
19691;SDS011;42748;50.016;19.890;2023-05-10T05:11:18;15.82;;;7.93;;
19691;SDS011;42748;50.016;19.890;2023-05-10T05:13:47;12.93;;;7.32;;
19691;SDS011;42748;50.016;19.890;2023-05-10T05:16:14;17.73;;;7.53;;
19691;SDS011;42748;50.016;19.890;2023-05-10T05:18:42;16.80;;;7.85;;
19691;SDS011;42748;50.016;19.890;2023-05-10T05:21:15;16.23;;;8.27;;
19691;SDS011;42748;50.016;19.890;2023-05-10T05:23:43;17.75;;;8.63;;
19691;SDS011;42748;50.016;19.890;2023-05-10T05:26:11;14.32;;;8.95;;
19691;SDS011;42748;50.016;19.890;2023-05-10T05:28:38;15.55;;;8.98;;
19691;SDS011;42748;50.016;19.890;2023-05-10T05:31:06;17.95;;;9.25;;
19691;SDS011;42748;50.016;19.890;2023-05-10T05:33:34;18.20;;;9.32;;
19691;SDS011;42748;50.016;19.890;2023-05-10T05:36:02;17.92;;;9.50;;
19691;SDS011;42748;50.016;19.890;2023-05-10T05:38:30;15.98;;;9.02;;
19691;SDS011;42748;50.016;19.890;2023-05-10T05:40:57;15.35;;;9.32;;
19691;SDS011;42748;50.016;19.890;2023-05-10T05:43:25;14.80;;;9.15;;
19691;SDS011;42748;50.016;19.890;2023-05-10T05:45:53;18.42;;;9.35;;
19691;SDS011;42748;50.016;19.890;2023-05-10T05:48:20;19.98;;;9.35;;
19691;SDS011;42748;50.016;19.890;2023-05-10T05:50:48;19.40;;;9.32;;
19691;SDS011;42748;50.016;19.890;2023-05-10T05:53:15;18.10;;;8.60;;
19691;SDS011;42748;50.016;19.890;2023-05-10T05:55:50;21.40;;;8.60;;
19691;SDS011;42748;50.016;19.890;2023-05-10T05:58:19;16.60;;;8.80;;
19691;SDS011;42748;50.016;19.890;2023-05-10T06:00:47;18.98;;;8.57;;
19691;SDS011;42748;50.016;19.890;2023-05-10T06:03:14;15.50;;;7.97;;
19691;SDS011;42748;50.016;19.890;2023-05-10T06:05:42;17.00;;;8.68;;
19691;SDS011;42748;50.016;19.890;2023-05-10T06:08:09;22.10;;;8.63;;
19691;SDS011;42748;50.016;19.890;2023-05-10T06:10:37;22.25;;;9.20;;
19691;SDS011;42748;50.016;19.890;2023-05-10T06:13:04;18.50;;;8.43;;
19691;SDS011;42748;50.016;19.890;2023-05-10T06:15:32;17.35;;;8.00;;
19691;SDS011;42748;50.016;19.890;2023-05-10T06:18:00;17.88;;;8.32;;
19691;SDS011;42748;50.016;19.890;2023-05-10T06:20:27;14.60;;;8.10;;
19691;SDS011;42748;50.016;19.890;2023-05-10T06:22:55;22.85;;;8.05;;
19691;SDS011;42748;50.016;19.890;2023-05-10T06:25:22;15.35;;;7.32;;
19691;SDS011;42748;50.016;19.890;2023-05-10T06:27:50;13.70;;;7.55;;
19691;SDS011;42748;50.016;19.890;2023-05-10T06:30:22;17.05;;;7.40;;
19691;SDS011;42748;50.016;19.890;2023-05-10T06:32:53;17.63;;;7.97;;
19691;SDS011;42748;50.016;19.890;2023-05-10T06:35:21;14.82;;;7.85;;
19691;SDS011;42748;50.016;19.890;2023-05-10T06:37:49;14.75;;;7.13;;
19691;SDS011;42748;50.016;19.890;2023-05-10T06:40:17;16.95;;;8.02;;
19691;SDS011;42748;50.016;19.890;2023-05-10T06:42:45;16.60;;;7.80;;
19691;SDS011;42748;50.016;19.890;2023-05-10T06:45:13;14.70;;;7.80;;
19691;SDS011;42748;50.016;19.890;2023-05-10T06:47:41;12.52;;;6.80;;
19691;SDS011;42748;50.016;19.890;2023-05-10T06:50:09;14.45;;;7.13;;
19691;SDS011;42748;50.016;19.890;2023-05-10T06:52:38;16.88;;;7.18;;
19691;SDS011;42748;50.016;19.890;2023-05-10T06:55:05;13.13;;;6.30;;
19691;SDS011;42748;50.016;19.890;2023-05-10T06:57:33;12.52;;;6.75;;
19691;SDS011;42748;50.016;19.890;2023-05-10T07:00:01;12.98;;;6.60;;
19691;SDS011;42748;50.016;19.890;2023-05-10T07:02:30;14.90;;;6.25;;
19691;SDS011;42748;50.016;19.890;2023-05-10T07:04:58;12.98;;;6.82;;
19691;SDS011;42748;50.016;19.890;2023-05-10T07:07:28;15.00;;;6.43;;
19691;SDS011;42748;50.016;19.890;2023-05-10T07:09:56;14.95;;;6.72;;
19691;SDS011;42748;50.016;19.890;2023-05-10T07:12:24;13.32;;;6.45;;
19691;SDS011;42748;50.016;19.890;2023-05-10T07:14:52;15.43;;;7.05;;
19691;SDS011;42748;50.016;19.890;2023-05-10T07:17:23;15.00;;;6.70;;
19691;SDS011;42748;50.016;19.890;2023-05-10T07:19:51;15.63;;;6.88;;
19691;SDS011;42748;50.016;19.890;2023-05-10T07:22:30;21.02;;;6.65;;
19691;SDS011;42748;50.016;19.890;2023-05-10T07:24:58;15.73;;;6.45;;
19691;SDS011;42748;50.016;19.890;2023-05-10T07:27:29;13.63;;;6.40;;
19691;SDS011;42748;50.016;19.890;2023-05-10T07:29:59;16.17;;;6.70;;
19691;SDS011;42748;50.016;19.890;2023-05-10T07:32:27;19.90;;;6.57;;
19691;SDS011;42748;50.016;19.890;2023-05-10T07:34:55;12.77;;;6.80;;
19691;SDS011;42748;50.016;19.890;2023-05-10T07:37:25;14.18;;;6.00;;
19691;SDS011;42748;50.016;19.890;2023-05-10T07:39:56;11.90;;;6.43;;
19691;SDS011;42748;50.016;19.890;2023-05-10T07:42:30;12.13;;;6.15;;
19691;SDS011;42748;50.016;19.890;2023-05-10T07:44:58;11.30;;;5.90;;
19691;SDS011;42748;50.016;19.890;2023-05-10T07:47:26;13.73;;;6.25;;
19691;SDS011;42748;50.016;19.890;2023-05-10T07:49:54;10.10;;;5.93;;
19691;SDS011;42748;50.016;19.890;2023-05-10T07:52:22;12.75;;;5.88;;
19691;SDS011;42748;50.016;19.890;2023-05-10T07:54:52;11.50;;;6.00;;
19691;SDS011;42748;50.016;19.890;2023-05-10T07:57:21;11.80;;;6.13;;
19691;SDS011;42748;50.016;19.890;2023-05-10T07:59:49;18.23;;;6.40;;
19691;SDS011;42748;50.016;19.890;2023-05-10T08:02:16;13.40;;;6.03;;
19691;SDS011;42748;50.016;19.890;2023-05-10T08:04:43;8.43;;;5.63;;
19691;SDS011;42748;50.016;19.890;2023-05-10T08:07:12;11.15;;;6.20;;
19691;SDS011;42748;50.016;19.890;2023-05-10T08:09:40;8.13;;;5.50;;
19691;SDS011;42748;50.016;19.890;2023-05-10T08:12:07;11.80;;;6.07;;
19691;SDS011;42748;50.016;19.890;2023-05-10T08:14:35;10.70;;;6.03;;
19691;SDS011;42748;50.016;19.890;2023-05-10T08:17:03;10.55;;;5.93;;
19691;SDS011;42748;50.016;19.890;2023-05-10T08:19:31;13.18;;;6.28;;
19691;SDS011;42748;50.016;19.890;2023-05-10T08:21:58;14.32;;;5.88;;
19691;SDS011;42748;50.016;19.890;2023-05-10T08:24:26;9.35;;;5.60;;
19691;SDS011;42748;50.016;19.890;2023-05-10T08:26:53;13.23;;;5.32;;
19691;SDS011;42748;50.016;19.890;2023-05-10T08:29:21;10.65;;;5.38;;
19691;SDS011;42748;50.016;19.890;2023-05-10T08:31:48;8.48;;;5.38;;
19691;SDS011;42748;50.016;19.890;2023-05-10T08:34:16;12.60;;;5.18;;
19691;SDS011;42748;50.016;19.890;2023-05-10T08:36:43;10.40;;;4.72;;
19691;SDS011;42748;50.016;19.890;2023-05-10T08:39:11;10.52;;;4.60;;
19691;SDS011;42748;50.016;19.890;2023-05-10T08:41:54;10.02;;;5.13;;
19691;SDS011;42748;50.016;19.890;2023-05-10T08:44:25;6.70;;;4.20;;
19691;SDS011;42748;50.016;19.890;2023-05-10T08:46:53;8.27;;;4.45;;
19691;SDS011;42748;50.016;19.890;2023-05-10T08:49:21;10.80;;;4.65;;
19691;SDS011;42748;50.016;19.890;2023-05-10T08:51:50;5.55;;;3.85;;
19691;SDS011;42748;50.016;19.890;2023-05-10T08:54:19;5.53;;;3.17;;
19691;SDS011;42748;50.016;19.890;2023-05-10T08:56:46;6.43;;;3.15;;
19691;SDS011;42748;50.016;19.890;2023-05-10T08:59:15;4.72;;;2.83;;
19691;SDS011;42748;50.016;19.890;2023-05-10T09:01:43;5.88;;;3.15;;
19691;SDS011;42748;50.016;19.890;2023-05-10T09:04:12;4.60;;;2.38;;
19691;SDS011;42748;50.016;19.890;2023-05-10T09:06:44;4.05;;;2.85;;
19691;SDS011;42748;50.016;19.890;2023-05-10T09:09:13;4.10;;;2.95;;
19691;SDS011;42748;50.016;19.890;2023-05-10T09:11:41;4.78;;;2.60;;
19691;SDS011;42748;50.016;19.890;2023-05-10T09:14:09;5.85;;;2.63;;
19691;SDS011;42748;50.016;19.890;2023-05-10T09:16:37;5.00;;;2.90;;
19691;SDS011;42748;50.016;19.890;2023-05-10T09:19:05;4.72;;;2.72;;
19691;SDS011;42748;50.016;19.890;2023-05-10T09:21:34;4.03;;;2.63;;
19691;SDS011;42748;50.016;19.890;2023-05-10T09:24:08;3.70;;;2.80;;
19691;SDS011;42748;50.016;19.890;2023-05-10T09:26:35;7.47;;;3.00;;
19691;SDS011;42748;50.016;19.890;2023-05-10T09:29:13;4.68;;;2.90;;
19691;SDS011;42748;50.016;19.890;2023-05-10T09:34:19;5.68;;;2.97;;
19691;SDS011;42748;50.016;19.890;2023-05-10T09:36:51;4.20;;;2.70;;
19691;SDS011;42748;50.016;19.890;2023-05-10T09:39:19;4.88;;;2.70;;
19691;SDS011;42748;50.016;19.890;2023-05-10T09:41:46;6.00;;;2.55;;
19691;SDS011;42748;50.016;19.890;2023-05-10T09:44:16;4.80;;;2.47;;
19691;SDS011;42748;50.016;19.890;2023-05-10T09:46:50;4.43;;;2.40;;
19691;SDS011;42748;50.016;19.890;2023-05-10T09:49:20;4.90;;;2.35;;
19691;SDS011;42748;50.016;19.890;2023-05-10T09:51:57;3.88;;;2.45;;
19691;SDS011;42748;50.016;19.890;2023-05-10T09:54:26;3.92;;;2.40;;
19691;SDS011;42748;50.016;19.890;2023-05-10T09:56:53;3.50;;;2.20;;
19691;SDS011;42748;50.016;19.890;2023-05-10T09:59:21;3.65;;;2.70;;
19691;SDS011;42748;50.016;19.890;2023-05-10T10:01:51;4.10;;;2.60;;
19691;SDS011;42748;50.016;19.890;2023-05-10T10:04:19;4.30;;;2.40;;
19691;SDS011;42748;50.016;19.890;2023-05-10T10:07:03;4.93;;;2.50;;
19691;SDS011;42748;50.016;19.890;2023-05-10T10:09:31;3.00;;;2.22;;
19691;SDS011;42748;50.016;19.890;2023-05-10T10:12:02;3.45;;;2.33;;
19691;SDS011;42748;50.016;19.890;2023-05-10T10:14:31;6.70;;;2.83;;
19691;SDS011;42748;50.016;19.890;2023-05-10T10:17:02;4.55;;;2.30;;
19691;SDS011;42748;50.016;19.890;2023-05-10T10:19:52;4.13;;;2.40;;
19691;SDS011;42748;50.016;19.890;2023-05-10T10:22:22;3.65;;;2.50;;
19691;SDS011;42748;50.016;19.890;2023-05-10T10:24:50;5.38;;;2.38;;
19691;SDS011;42748;50.016;19.890;2023-05-10T10:28:21;3.17;;;2.20;;
19691;SDS011;42748;50.016;19.890;2023-05-10T10:33:06;3.63;;;2.40;;
19691;SDS011;42748;50.016;19.890;2023-05-10T10:35:53;5.10;;;2.30;;
19691;SDS011;42748;50.016;19.890;2023-05-10T10:38:21;8.57;;;2.70;;
19691;SDS011;42748;50.016;19.890;2023-05-10T10:40:49;5.28;;;2.53;;
19691;SDS011;42748;50.016;19.890;2023-05-10T10:43:28;6.10;;;2.70;;
19691;SDS011;42748;50.016;19.890;2023-05-10T10:46:16;4.25;;;2.55;;
19691;SDS011;42748;50.016;19.890;2023-05-10T10:48:47;4.60;;;2.35;;
19691;SDS011;42748;50.016;19.890;2023-05-10T10:51:15;3.80;;;2.65;;
19691;SDS011;42748;50.016;19.890;2023-05-10T10:53:43;4.70;;;2.72;;
19691;SDS011;42748;50.016;19.890;2023-05-10T10:56:11;3.58;;;2.67;;
19691;SDS011;42748;50.016;19.890;2023-05-10T10:58:42;3.42;;;2.50;;
19691;SDS011;42748;50.016;19.890;2023-05-10T11:01:20;5.32;;;2.40;;
19691;SDS011;42748;50.016;19.890;2023-05-10T11:06:31;3.75;;;2.38;;
19691;SDS011;42748;50.016;19.890;2023-05-10T11:08:59;4.72;;;2.50;;
19691;SDS011;42748;50.016;19.890;2023-05-10T11:11:26;6.53;;;2.47;;
19691;SDS011;42748;50.016;19.890;2023-05-10T11:13:54;4.97;;;2.30;;
19691;SDS011;42748;50.016;19.890;2023-05-10T11:16:29;3.47;;;2.33;;
19691;SDS011;42748;50.016;19.890;2023-05-10T11:19:08;3.25;;;2.50;;
19691;SDS011;42748;50.016;19.890;2023-05-10T11:24:29;4.60;;;2.40;;
19691;SDS011;42748;50.016;19.890;2023-05-10T11:26:57;5.15;;;2.35;;
19691;SDS011;42748;50.016;19.890;2023-05-10T11:29:24;4.68;;;2.40;;
19691;SDS011;42748;50.016;19.890;2023-05-10T11:31:53;4.18;;;2.63;;
19691;SDS011;42748;50.016;19.890;2023-05-10T11:36:52;5.47;;;2.60;;
19691;SDS011;42748;50.016;19.890;2023-05-10T11:39:20;3.65;;;2.28;;
19691;SDS011;42748;50.016;19.890;2023-05-10T11:41:48;4.38;;;2.47;;
19691;SDS011;42748;50.016;19.890;2023-05-10T11:44:16;6.35;;;2.50;;
19691;SDS011;42748;50.016;19.890;2023-05-10T11:46:43;5.25;;;2.33;;
19691;SDS011;42748;50.016;19.890;2023-05-10T11:49:11;5.72;;;3.03;;
19691;SDS011;42748;50.016;19.890;2023-05-10T11:51:39;7.07;;;2.67;;
19691;SDS011;42748;50.016;19.890;2023-05-10T11:54:10;3.55;;;2.42;;
19691;SDS011;42748;50.016;19.890;2023-05-10T11:56:38;4.40;;;2.67;;
19691;SDS011;42748;50.016;19.890;2023-05-10T11:59:06;6.20;;;2.80;;
19691;SDS011;42748;50.016;19.890;2023-05-10T12:01:35;4.40;;;2.75;;
19691;SDS011;42748;50.016;19.890;2023-05-10T12:04:02;4.47;;;2.45;;
19691;SDS011;42748;50.016;19.890;2023-05-10T12:06:31;4.85;;;2.85;;
19691;SDS011;42748;50.016;19.890;2023-05-10T12:09:01;5.00;;;2.80;;
19691;SDS011;42748;50.016;19.890;2023-05-10T12:11:35;5.28;;;2.88;;
19691;SDS011;42748;50.016;19.890;2023-05-10T12:14:04;6.60;;;3.13;;
19691;SDS011;42748;50.016;19.890;2023-05-10T12:16:32;4.78;;;3.05;;
19691;SDS011;42748;50.016;19.890;2023-05-10T12:19:00;5.72;;;2.70;;
19691;SDS011;42748;50.016;19.890;2023-05-10T12:21:28;4.22;;;2.60;;
19691;SDS011;42748;50.016;19.890;2023-05-10T12:24:01;6.72;;;2.92;;
19691;SDS011;42748;50.016;19.890;2023-05-10T12:26:29;4.30;;;2.80;;
19691;SDS011;42748;50.016;19.890;2023-05-10T12:29:18;4.97;;;2.90;;
19691;SDS011;42748;50.016;19.890;2023-05-10T12:31:54;3.88;;;3.03;;
19691;SDS011;42748;50.016;19.890;2023-05-10T12:34:32;6.07;;;2.92;;
19691;SDS011;42748;50.016;19.890;2023-05-10T12:37:00;5.78;;;2.50;;
19691;SDS011;42748;50.016;19.890;2023-05-10T12:42:24;8.63;;;2.80;;
19691;SDS011;42748;50.016;19.890;2023-05-10T12:44:55;4.90;;;2.70;;
19691;SDS011;42748;50.016;19.890;2023-05-10T12:47:23;4.15;;;2.80;;
19691;SDS011;42748;50.016;19.890;2023-05-10T12:49:51;4.10;;;2.70;;
19691;SDS011;42748;50.016;19.890;2023-05-10T12:52:21;4.18;;;2.65;;
19691;SDS011;42748;50.016;19.890;2023-05-10T12:54:48;6.35;;;2.40;;
19691;SDS011;42748;50.016;19.890;2023-05-10T12:57:16;4.40;;;2.67;;
19691;SDS011;42748;50.016;19.890;2023-05-10T12:59:44;5.95;;;2.45;;
19691;SDS011;42748;50.016;19.890;2023-05-10T13:02:11;4.18;;;2.70;;
19691;SDS011;42748;50.016;19.890;2023-05-10T13:04:39;4.05;;;2.67;;
19691;SDS011;42748;50.016;19.890;2023-05-10T13:07:07;3.72;;;2.40;;
19691;SDS011;42748;50.016;19.890;2023-05-10T13:09:34;4.40;;;2.58;;
19691;SDS011;42748;50.016;19.890;2023-05-10T13:12:02;4.50;;;2.78;;
19691;SDS011;42748;50.016;19.890;2023-05-10T13:14:30;6.38;;;2.58;;
19691;SDS011;42748;50.016;19.890;2023-05-10T13:16:57;3.53;;;2.63;;
19691;SDS011;42748;50.016;19.890;2023-05-10T13:19:25;6.30;;;3.00;;
19691;SDS011;42748;50.016;19.890;2023-05-10T13:21:53;3.20;;;2.58;;
19691;SDS011;42748;50.016;19.890;2023-05-10T13:24:20;5.97;;;3.03;;
19691;SDS011;42748;50.016;19.890;2023-05-10T13:26:48;7.50;;;2.58;;
19691;SDS011;42748;50.016;19.890;2023-05-10T13:29:16;5.22;;;2.75;;
19691;SDS011;42748;50.016;19.890;2023-05-10T13:31:44;4.40;;;2.55;;
19691;SDS011;42748;50.016;19.890;2023-05-10T13:34:12;3.60;;;2.47;;
19691;SDS011;42748;50.016;19.890;2023-05-10T13:36:40;4.20;;;2.95;;
19691;SDS011;42748;50.016;19.890;2023-05-10T13:39:07;4.43;;;2.70;;
19691;SDS011;42748;50.016;19.890;2023-05-10T13:41:35;4.70;;;2.53;;
19691;SDS011;42748;50.016;19.890;2023-05-10T13:44:03;3.78;;;2.58;;
19691;SDS011;42748;50.016;19.890;2023-05-10T13:46:31;4.28;;;2.67;;
19691;SDS011;42748;50.016;19.890;2023-05-10T13:48:58;4.25;;;2.65;;
19691;SDS011;42748;50.016;19.890;2023-05-10T13:51:29;4.90;;;2.80;;
19691;SDS011;42748;50.016;19.890;2023-05-10T13:53:58;6.63;;;2.70;;
19691;SDS011;42748;50.016;19.890;2023-05-10T13:56:25;4.18;;;2.58;;
19691;SDS011;42748;50.016;19.890;2023-05-10T13:58:53;3.42;;;2.40;;
19691;SDS011;42748;50.016;19.890;2023-05-10T14:01:21;4.05;;;2.65;;
19691;SDS011;42748;50.016;19.890;2023-05-10T14:03:48;5.15;;;2.78;;
19691;SDS011;42748;50.016;19.890;2023-05-10T14:06:16;3.83;;;2.30;;
19691;SDS011;42748;50.016;19.890;2023-05-10T14:08:44;3.03;;;2.63;;
19691;SDS011;42748;50.016;19.890;2023-05-10T14:11:12;5.32;;;2.75;;
19691;SDS011;42748;50.016;19.890;2023-05-10T14:13:39;6.85;;;2.53;;
19691;SDS011;42748;50.016;19.890;2023-05-10T14:16:07;4.40;;;2.83;;
19691;SDS011;42748;50.016;19.890;2023-05-10T14:18:35;5.10;;;2.50;;
19691;SDS011;42748;50.016;19.890;2023-05-10T14:21:03;7.60;;;2.63;;
19691;SDS011;42748;50.016;19.890;2023-05-10T14:23:30;4.63;;;2.78;;
19691;SDS011;42748;50.016;19.890;2023-05-10T14:25:58;5.88;;;2.50;;
19691;SDS011;42748;50.016;19.890;2023-05-10T14:28:25;3.35;;;2.55;;
19691;SDS011;42748;50.016;19.890;2023-05-10T14:30:53;3.85;;;2.40;;
19691;SDS011;42748;50.016;19.890;2023-05-10T14:33:21;4.47;;;2.80;;
19691;SDS011;42748;50.016;19.890;2023-05-10T14:35:49;4.95;;;2.70;;
19691;SDS011;42748;50.016;19.890;2023-05-10T14:38:16;10.32;;;2.85;;
19691;SDS011;42748;50.016;19.890;2023-05-10T14:40:44;4.00;;;2.55;;
19691;SDS011;42748;50.016;19.890;2023-05-10T14:43:12;4.57;;;2.65;;
19691;SDS011;42748;50.016;19.890;2023-05-10T14:45:39;4.18;;;2.72;;
19691;SDS011;42748;50.016;19.890;2023-05-10T14:48:07;7.85;;;2.60;;
19691;SDS011;42748;50.016;19.890;2023-05-10T14:50:38;4.65;;;2.70;;
19691;SDS011;42748;50.016;19.890;2023-05-10T14:53:06;5.97;;;2.70;;
19691;SDS011;42748;50.016;19.890;2023-05-10T14:55:33;5.35;;;2.33;;
19691;SDS011;42748;50.016;19.890;2023-05-10T14:58:02;5.20;;;2.60;;
19691;SDS011;42748;50.016;19.890;2023-05-10T15:00:29;3.53;;;2.75;;
19691;SDS011;42748;50.016;19.890;2023-05-10T15:02:58;4.22;;;2.50;;
19691;SDS011;42748;50.016;19.890;2023-05-10T15:05:26;5.28;;;2.38;;